Time;durP1;ratioP1;P1;durP2;ratioP2;P2;SDS_P1;SDS_P2;PMS_P1;PMS_P2;Temp;Humidity;BMP_temperature;BMP_pressure;BME280_temperature;BME280_humidity;BME280_pressure;Samples;Min_cycle;Max_cycle;Signal;HPM_P1;HPM_P2
2023/02/10 07:50:05;;;;;;;9.47;4.03;;;;;;;;;;5133024;27;20278;-77
2023/02/10 07:52:31;;;;;;;3.83;2.47;;;;;;;;;;5133453;28;20993;-77
2023/02/10 07:58:44;;;;;;;5.37;2.70;;;;;;;;;;5135107;27;20274;-77
2023/02/10 08:11:05;;;;;;;5.40;3.37;;;-2.60;99.90;;;;;;5134702;27;20624;-77
2023/02/10 08:15:16;;;;;;;8.03;3.63;;;;;;;;;;5134378;27;20276;-77
2023/02/10 08:31:05;;;;;;;5.77;4.23;;;0.50;99.90;;;;;;5136668;27;20607;-79
2023/02/10 08:33:34;;;;;;;7.90;4.10;;;0.80;99.90;;;;;;5140034;28;20528;-79
2023/02/10 08:36:05;;;;;;;5.47;3.90;;;0.90;99.90;;;;;;5137785;28;20415;-79
2023/02/10 08:38:30;;;;;;;6.03;4.17;;;0.70;99.90;;;;;;5140153;28;20420;-79
2023/02/10 08:40:57;;;;;;;5.93;4.00;;;0.70;99.90;;;;;;5144659;28;20412;-79
2023/02/10 08:43:24;;;;;;;8.33;5.77;;;0.80;99.90;;;;;;5147941;28;20265;-78
2023/02/10 08:45:50;;;;;;;8.67;5.43;;;1.00;99.90;;;;;;5150238;27;20473;-78
2023/02/10 08:48:17;;;;;;;7.00;4.73;;;1.00;99.90;;;;;;5143240;28;20459;-78
2023/02/10 08:50:43;;;;;;;7.03;4.73;;;1.40;99.90;;;;;;5135269;28;20467;-78
2023/02/10 08:53:09;;;;;;;6.60;4.67;;;1.20;99.90;;;;;;5136567;27;20481;-78
2023/02/10 08:55:35;;;;;;;8.43;5.13;;;1.10;99.90;;;;;;5136774;27;20412;-80
2023/02/10 08:58:02;;;;;;;9.63;5.30;;;1.30;99.90;;;;;;5137172;28;20409;-79
2023/02/10 09:00:27;;;;;;;13.07;5.90;;;1.50;99.90;;;;;;5137114;28;20232;-79
2023/02/10 09:02:53;;;;;;;9.03;5.03;;;1.60;99.90;;;;;;5137111;28;20600;-79
2023/02/10 09:05:19;;;;;;;9.77;5.20;;;1.40;99.90;;;;;;5137147;28;20210;-79
2023/02/10 09:07:45;;;;;;;11.53;5.97;;;1.70;99.90;;;;;;5138733;27;20176;-79
2023/02/10 09:10:12;;;;;;;10.67;5.37;;;1.90;99.90;;;;;;5137530;28;20211;-80
2023/02/10 09:12:39;;;;;;;11.83;6.53;;;1.90;99.90;;;;;;5139618;27;20169;-80
2023/02/10 09:15:04;;;;;;;6.97;4.43;;;2.10;99.90;;;;;;5141672;27;20196;-79
2023/02/10 09:17:30;;;;;;;9.60;4.40;;;2.00;99.90;;;;;;5141675;28;20272;-79
2023/02/10 09:19:56;;;;;;;9.53;4.73;;;1.90;99.90;;;;;;5136592;27;20190;-79
2023/02/10 09:22:22;;;;;;;9.80;4.90;;;2.00;99.90;;;;;;5135746;27;20173;-79
2023/02/10 09:24:51;;;;;;;8.33;4.27;;;2.00;99.90;;;;;;5136370;27;20203;-80
2023/02/10 09:27:18;;;;;;;9.23;4.13;;;2.30;99.90;;;;;;5134905;28;20177;-80
2023/02/10 09:29:45;;;;;;;7.33;4.53;;;2.60;99.90;;;;;;5134032;28;20265;-80
2023/02/10 09:32:11;;;;;;;7.43;4.67;;;3.00;99.90;;;;;;5134102;28;20206;-80
2023/02/10 09:34:36;;;;;;;5.87;4.13;;;3.60;99.90;;;;;;5136451;27;20191;-80
2023/02/10 09:37:04;;;;;;;10.60;4.80;;;3.80;97.60;;;;;;5136527;27;20171;-80
2023/02/10 09:39:29;;;;;;;7.83;4.20;;;3.80;97.60;;;;;;5138911;27;20179;-80
2023/02/10 09:42:23;;;;;;;10.20;4.63;;;3.60;97.50;;;;;;5123895;28;20179;-80
2023/02/10 09:44:55;;;;;;;6.90;4.60;;;3.70;97.80;;;;;;5123708;28;20292;-80
2023/02/10 09:47:33;;;;;;;7.73;4.83;;;4.20;97.70;;;;;;5121922;28;20183;-81
2023/02/10 09:50:29;;;;;;;8.60;4.70;;;4.50;97.00;;;;;;5122492;28;20237;-81
2023/02/10 09:53:01;;;;;;;7.97;5.17;;;4.80;96.20;;;;;;5125054;28;20548;-81
2023/02/10 09:55:30;;;;;;;7.50;4.67;;;5.20;95.00;;;;;;5122595;28;20175;-81
2023/02/10 09:58:21;;;;;;;8.40;5.27;;;5.40;95.10;;;;;;5122419;28;20548;-81
2023/02/10 10:00:51;;;;;;;9.43;5.60;;;5.40;93.70;;;;;;5124562;28;20519;-81
2023/02/10 10:03:28;;;;;;;9.07;5.60;;;5.40;93.60;;;;;;5125100;28;20287;-81
2023/02/10 10:06:07;;;;;;;12.27;6.30;;;5.80;93.40;;;;;;5127488;28;20187;-82
2023/02/10 10:08:57;;;;;;;10.73;6.20;;;5.90;92.20;;;;;;5124510;28;20194;-81
2023/02/10 10:11:35;;;;;;;11.60;5.93;;;5.90;93.10;;;;;;5132520;28;20651;-81
2023/02/10 10:14:01;;;;;;;10.07;6.73;;;6.10;92.10;;;;;;5128859;27;20195;-81
2023/02/10 10:16:45;;;;;;;18.03;7.50;;;6.60;91.90;;;;;;5121118;28;20176;-81
2023/02/10 10:19:36;;;;;;;13.17;6.83;;;6.70;91.30;;;;;;5122250;27;20163;-82
2023/02/10 10:22:26;;;;;;;10.93;7.37;;;6.70;91.40;;;;;;5121401;28;20211;-82
2023/02/10 10:25:04;;;;;;;8.63;6.20;;;6.90;90.90;;;;;;5121582;28;20725;-81
2023/02/10 10:27:42;;;;;;;9.80;6.60;;;7.10;92.20;;;;;;5122116;28;20530;-81
2023/02/10 10:30:16;;;;;;;12.93;7.27;;;7.30;90.50;;;;;;5120518;28;20599;-81
2023/02/10 10:32:55;;;;;;;10.20;7.67;;;7.20;91.80;;;;;;5122191;28;20193;-81
2023/02/10 10:35:31;;;;;;;15.70;7.70;;;7.50;91.20;;;;;;5120183;28;20176;-82
2023/02/10 10:37:57;;;;;;;20.77;15.53;;;7.90;92.50;;;;;;5120485;28;20270;-82
2023/02/10 10:40:28;;;;;;;13.73;9.53;;;8.20;90.90;;;;;;5121247;28;20271;-81
2023/02/10 10:42:58;;;;;;;11.00;8.43;;;8.50;90.40;;;;;;5118433;28;20266;-81
2023/02/10 10:45:26;;;;;;;12.20;9.20;;;8.60;89.70;;;;;;5118210;28;20170;-81
2023/02/10 10:48:09;;;;;;;15.30;8.47;;;8.50;90.00;;;;;;5118341;28;20644;-81
2023/02/10 10:50:36;;;;;;;11.83;9.57;;;8.70;87.20;;;;;;5120098;28;20198;-81
2023/02/10 10:53:11;;;;;;;11.30;8.70;;;8.70;88.00;;;;;;5118507;28;20182;-81
2023/02/10 10:55:38;;;;;;;12.33;8.37;;;8.50;86.40;;;;;;5118748;28;20169;-81
2023/02/10 10:58:32;;;;;;;10.17;8.00;;;8.20;89.00;;;;;;5118380;28;20201;-81
2023/02/10 11:01:01;;;;;;;12.40;10.07;;;8.30;89.60;;;;;;5112812;27;20193;-81
2023/02/10 11:03:27;;;;;;;13.70;9.10;;;8.10;88.90;;;;;;5117667;28;20202;-81
2023/02/10 11:06:03;;;;;;;13.43;11.17;;;8.20;90.90;;;;;;5116571;28;20565;-81
2023/02/10 11:08:34;;;;;;;15.50;11.57;;;8.60;90.50;;;;;;5117057;28;20292;-81
2023/02/10 11:11:02;;;;;;;15.53;10.13;;;8.90;90.10;;;;;;5117534;28;20193;-81
2023/02/10 11:13:31;;;;;;;11.77;10.30;;;9.30;90.30;;;;;;5097488;28;20258;-83
2023/02/10 11:16:06;;;;;;;12.60;9.93;;;9.40;89.20;;;;;;5099069;28;20172;-82
2023/02/10 11:18:32;;;;;;;13.13;9.30;;;9.30;86.60;;;;;;5094938;28;20182;-83
2023/02/10 11:21:06;;;;;;;14.23;9.93;;;9.30;83.50;;;;;;5094958;28;20542;-82
2023/02/10 11:23:35;;;;;;;14.47;9.57;;;9.30;89.60;;;;;;5099073;28;20202;-82
2023/02/10 11:26:04;;;;;;;12.30;9.20;;;9.10;84.10;;;;;;5102075;28;20183;-82
2023/02/10 11:28:35;;;;;;;12.63;9.53;;;9.20;84.70;;;;;;5102786;28;20523;-82
2023/02/10 11:31:06;;;;;;;13.13;10.30;;;9.20;87.60;;;;;;5101613;28;20214;-82
2023/02/10 11:33:34;;;;;;;19.93;15.30;;;9.50;87.90;;;;;;5102223;28;20203;-82
2023/02/10 11:36:07;;;;;;;15.57;13.30;;;9.50;84.70;;;;;;5103820;28;20242;-82
2023/02/10 11:38:34;;;;;;;15.30;11.17;;;9.40;85.10;;;;;;5101506;28;20165;-82
2023/02/10 11:41:05;;;;;;;12.93;9.97;;;9.70;86.20;;;;;;5104247;28;20179;-82
2023/02/10 11:43:45;;;;;;;14.27;10.20;;;9.30;83.90;;;;;;5102292;28;20547;-81
2023/02/10 11:46:22;;;;;;;17.37;9.83;;;9.60;90.00;;;;;;5105370;28;20276;-82
2023/02/10 11:49:02;;;;;;;13.43;11.10;;;9.80;83.70;;;;;;5104934;28;20184;-82
2023/02/10 11:51:29;;;;;;;13.83;9.67;;;10.20;84.10;;;;;;5110459;28;20187;-82
2023/02/10 11:53:56;;;;;;;14.93;11.20;;;10.30;85.50;;;;;;5110553;28;20230;-81
2023/02/10 11:58:58;;;;;;;13.53;10.40;;;10.20;80.30;;;;;;5104384;28;20177;-83
2023/02/10 11:59:35;;;;;;;11.77;9.50;;;10.30;80.90;;;;;;5102865;28;20165;-81
2023/02/10 12:02:16;;;;;;;12.17;10.03;;;10.10;81.90;;;;;;5099974;28;20168;-82
2023/02/10 12:05:03;;;;;;;11.27;10.03;;;10.30;80.30;;;;;;5102246;28;20196;-82
2023/02/10 12:07:56;;;;;;;13.87;10.47;;;10.90;79.50;;;;;;5101341;28;20218;-82
2023/02/10 12:10:56;;;;;;;11.40;10.07;;;10.90;74.30;;;;;;5100783;28;20199;-81
2023/02/10 12:13:45;;;;;;;13.17;10.40;;;10.50;74.00;;;;;;5081367;28;20291;-81
2023/02/10 12:16:28;;;;;;;15.33;12.00;;;10.20;75.70;;;;;;5103923;28;20189;-81
2023/02/10 12:19:06;;;;;;;11.40;9.53;;;10.80;79.90;;;;;;5103360;28;20243;-81
2023/02/10 12:22:02;;;;;;;11.00;9.53;;;10.50;72.20;;;;;;5104346;28;20664;-81
2023/02/10 12:24:45;;;;;;;11.50;9.33;;;10.70;73.40;;;;;;5101659;28;20203;-81
2023/02/10 12:27:21;;;;;;;11.30;9.20;;;10.70;73.70;;;;;;5102903;28;20154;-81
2023/02/10 12:29:53;;;;;;;10.67;8.37;;;10.80;68.60;;;;;;5099176;28;20208;-81
2023/02/10 12:32:38;;;;;;;12.70;10.17;;;11.00;71.60;;;;;;5100335;28;20173;-81
2023/02/10 12:35:45;;;;;;;11.70;9.17;;;11.50;67.90;;;;;;5098108;28;20256;-80
2023/02/10 12:38:40;;;;;;;10.47;9.00;;;11.30;66.20;;;;;;5097593;28;20187;-81
2023/02/10 12:41:18;;;;;;;9.60;7.97;;;11.50;64.70;;;;;;5097808;28;20182;-82
2023/02/10 12:43:49;;;;;;;10.27;8.63;;;11.70;64.20;;;;;;5098297;28;20268;-81
2023/02/10 12:46:24;;;;;;;12.10;9.20;;;11.40;63.40;;;;;;5098952;28;20273;-82
2023/02/10 12:49:11;;;;;;;18.67;10.90;;;11.30;64.60;;;;;;5098912;28;20172;-81
2023/02/10 12:51:49;;;;;;;13.60;11.33;;;11.50;63.70;;;;;;5101212;28;20159;-82
2023/02/10 12:54:21;;;;;;;19.07;15.33;;;11.60;62.60;;;;;;5102358;28;20198;-81
2023/02/10 12:56:49;;;;;;;12.23;10.17;;;11.40;63.00;;;;;;5101593;28;20182;-81
2023/02/10 12:59:22;;;;;;;11.00;8.43;;;11.70;61.80;;;;;;5100396;28;20635;-81
2023/02/10 13:02:00;;;;;;;10.23;8.50;;;12.20;62.10;;;;;;5101524;28;20180;-81
2023/02/10 13:04:28;;;;;;;11.67;8.27;;;12.40;60.80;;;;;;5101872;28;20201;-81
2023/02/10 13:07:02;;;;;;;15.73;12.37;;;12.40;59.50;;;;;;5101311;28;20185;-81
2023/02/10 13:09:36;;;;;;;13.33;10.53;;;12.40;61.20;;;;;;5099560;28;20252;-82
2023/02/10 13:12:16;;;;;;;12.27;9.90;;;12.40;60.80;;;;;;5100810;28;20164;-82
2023/02/10 13:14:45;;;;;;;14.40;9.13;;;12.50;59.90;;;;;;5101564;28;20259;-82
2023/02/10 13:17:10;;;;;;;11.43;8.80;;;12.70;59.80;;;;;;5101861;28;20173;-82
2023/02/10 13:19:50;;;;;;;13.40;11.17;;;12.90;60.00;;;;;;5103147;28;20250;-82
2023/02/10 13:22:16;;;;;;;12.40;10.57;;;13.00;60.00;;;;;;5106652;28;20252;-81
2023/02/10 13:25:03;;;;;;;16.70;10.17;;;12.70;60.40;;;;;;5108653;28;20188;-82
2023/02/10 13:28:03;;;;;;;15.20;9.80;;;12.80;60.50;;;;;;5104992;28;20199;-82
2023/02/10 13:30:59;;;;;;;10.60;9.03;;;13.10;60.00;;;;;;5105462;28;20204;-82
2023/02/10 13:33:51;;;;;;;10.77;8.37;;;13.00;59.20;;;;;;5114506;28;20191;-82
2023/02/10 13:36:25;;;;;;;13.33;10.03;;;13.10;58.90;;;;;;5116154;28;20180;-82
2023/02/10 13:38:59;;;;;;;11.87;9.30;;;13.10;59.30;;;;;;5125609;28;20172;-81
2023/02/10 13:41:45;;;;;;;12.90;9.63;;;13.00;60.00;;;;;;5126366;28;20188;-82
2023/02/10 13:44:25;;;;;;;10.87;9.43;;;12.60;59.00;;;;;;5124550;28;20217;-82
2023/02/10 13:47:08;;;;;;;12.40;9.57;;;11.50;60.70;;;;;;5125327;28;20163;-82
2023/02/10 13:49:37;;;;;;;12.87;9.87;;;9.60;65.10;;;;;;5124472;28;20199;-81
2023/02/10 13:52:13;;;;;;;10.97;9.60;;;8.40;69.20;;;;;;5123619;28;20179;-81
2023/02/10 13:54:39;;;;;;;13.80;9.73;;;7.60;73.30;;;;;;5125543;28;20185;-81
2023/02/10 13:57:04;;;;;;;12.73;10.10;;;7.90;73.60;;;;;;5124578;28;20272;-81
2023/02/10 13:59:40;;;;;;;12.60;9.63;;;9.70;70.40;;;;;;5119573;28;20226;-79
2023/02/10 14:02:29;;;;;;;12.93;9.73;;;10.70;66.60;;;;;;5117075;28;20172;-83
2023/02/10 14:04:55;;;;;;;13.23;9.13;;;11.20;64.40;;;;;;5117657;27;20242;-82
2023/02/10 14:07:29;;;;;;;12.10;9.30;;;11.60;63.80;;;;;;5117656;28;20204;-81
2023/02/10 14:10:23;;;;;;;11.87;10.17;;;12.00;62.00;;;;;;5126449;28;20191;-82
2023/02/10 14:13:16;;;;;;;14.90;9.40;;;11.10;62.00;;;;;;5122007;28;20229;-87
2023/02/10 14:15:53;;;;;;;15.63;10.30;;;10.20;64.40;;;;;;5122937;28;20574;-83
2023/02/10 14:18:34;;;;;;;13.10;10.03;;;8.70;69.20;;;;;;5125319;28;20625;-82
2023/02/10 14:21:15;;;;;;;20.53;14.20;;;7.60;72.60;;;;;;5123263;28;20172;-82
2023/02/10 14:23:49;;;;;;;18.23;10.50;;;6.60;74.80;;;;;;5122843;28;20621;-81
2023/02/10 14:26:21;;;;;;;13.23;9.03;;;6.20;77.20;;;;;;5122766;28;20172;-81
2023/02/10 14:28:50;;;;;;;15.23;9.60;;;5.90;79.50;;;;;;5122052;28;20172;-80
2023/02/10 14:31:35;;;;;;;12.53;8.60;;;5.50;81.00;;;;;;5124812;28;20212;-80
2023/02/10 14:34:28;;;;;;;14.10;9.90;;;5.40;83.80;;;;;;5123318;28;20664;-81
2023/02/10 14:37:00;;;;;;;14.07;9.20;;;5.30;83.70;;;;;;5122305;28;20175;-80
2023/02/10 14:39:28;;;;;;;19.33;10.13;;;5.20;84.90;;;;;;5123180;28;20175;-80
2023/02/10 14:41:57;;;;;;;17.90;10.03;;;5.10;87.40;;;;;;5123432;28;20178;-81
2023/02/10 14:44:35;;;;;;;21.97;9.83;;;5.10;88.90;;;;;;5124239;28;20716;-77
2023/02/10 14:47:01;;;;;;;14.27;9.77;;;5.10;87.80;;;;;;5123981;28;20256;-81
2023/02/10 14:49:28;;;;;;;19.27;10.00;;;5.10;89.30;;;;;;5123125;28;20560;-81
2023/02/10 14:51:54;;;;;;;13.83;9.83;;;5.20;90.00;;;;;;5123264;28;20164;-80
2023/02/10 14:54:23;;;;;;;19.33;10.87;;;5.00;88.70;;;;;;5121783;28;20288;-81
2023/02/10 14:56:57;;;;;;;17.30;10.70;;;4.90;90.30;;;;;;5123480;28;20170;-81
2023/02/10 14:59:27;;;;;;;14.83;9.73;;;4.80;90.60;;;;;;5122974;28;20175;-81
2023/02/10 15:01:54;;;;;;;15.87;10.03;;;4.70;91.00;;;;;;5121558;28;20176;-80
2023/02/10 15:04:24;;;;;;;16.30;10.90;;;4.50;91.50;;;;;;5121106;28;20690;-79
2023/02/10 15:06:54;;;;;;;16.77;10.33;;;4.40;91.90;;;;;;5121487;28;20164;-80
2023/02/10 15:09:28;;;;;;;16.97;10.70;;;4.40;92.60;;;;;;5125701;28;20558;-79
2023/02/10 15:12:17;;;;;;;16.50;9.83;;;4.50;92.20;;;;;;5123266;28;20189;-80
2023/02/10 15:14:58;;;;;;;16.73;10.97;;;4.40;92.70;;;;;;5119642;28;20199;-80
2023/02/10 15:17:57;;;;;;;16.67;11.10;;;4.40;93.20;;;;;;5102126;28;20178;-80
2023/02/10 15:20:27;;;;;;;16.20;11.20;;;4.30;93.10;;;;;;5101817;28;20218;-80
2023/02/10 15:22:58;;;;;;;16.87;11.43;;;4.30;93.50;;;;;;5103903;28;20187;-80
2023/02/10 15:25:28;;;;;;;16.17;10.43;;;4.30;93.40;;;;;;5103706;28;20199;-79
2023/02/10 15:27:55;;;;;;;19.20;10.70;;;4.30;94.00;;;;;;5104057;28;20176;-80
2023/02/10 15:30:26;;;;;;;19.90;10.60;;;4.20;94.00;;;;;;5110417;28;20206;-80
2023/02/10 15:33:01;;;;;;;17.70;11.37;;;4.20;94.30;;;;;;5121048;28;20721;-80
